createdAt,value
2018-12-01T00:00:36.833Z,3.30
2018-12-01T00:03:06.249Z,3.20
2018-12-01T00:05:35.749Z,3.30
2018-12-01T00:08:05.197Z,3.20
2018-12-01T00:10:34.595Z,3.40
2018-12-01T00:13:04.037Z,3.30
2018-12-01T00:15:33.720Z,3.40
2018-12-01T00:18:03.257Z,3.30
2018-12-01T00:20:34.482Z,3.30
2018-12-01T00:23:03.909Z,3.40
2018-12-01T00:25:33.287Z,3.40
2018-12-01T00:28:02.709Z,3.30
2018-12-01T00:30:32.093Z,3.30
2018-12-01T00:33:01.530Z,3.30
2018-12-01T00:35:30.930Z,3.40
2018-12-01T00:38:00.356Z,3.40
2018-12-01T00:40:29.801Z,3.30
2018-12-01T00:42:59.188Z,3.20
2018-12-01T00:45:28.607Z,3.20
2018-12-01T00:47:57.950Z,3.20
2018-12-01T00:50:27.388Z,3.20
2018-12-01T00:52:56.778Z,3.30
2018-12-01T00:55:26.198Z,3.40
2018-12-01T00:57:55.577Z,3.50
2018-12-01T01:00:26.886Z,3.70
2018-12-01T01:02:57.845Z,3.80
2018-12-01T01:05:28.971Z,3.80
2018-12-01T01:07:59.163Z,3.80
2018-12-01T01:10:29.607Z,3.90
2018-12-01T01:12:58.973Z,3.70
2018-12-01T01:15:28.360Z,3.70
2018-12-01T01:17:57.746Z,3.70
2018-12-01T01:20:27.175Z,3.70
2018-12-01T01:22:56.576Z,3.70
2018-12-01T01:25:25.988Z,3.60
2018-12-01T01:27:55.346Z,3.60
2018-12-01T01:30:25.057Z,3.50
2018-12-01T01:33:05.430Z,3.60
2018-12-01T01:35:34.830Z,3.50
2018-12-01T01:38:04.214Z,3.60
2018-12-01T01:40:33.630Z,3.50
2018-12-01T01:43:02.986Z,3.40
2018-12-01T01:45:32.425Z,3.40
2018-12-01T01:48:01.825Z,3.40
2018-12-01T01:50:31.230Z,3.40
2018-12-01T01:53:00.618Z,3.50
2018-12-01T01:55:30.067Z,3.50
2018-12-01T01:57:59.445Z,3.70
2018-12-01T02:00:28.889Z,3.90
2018-12-01T02:02:58.295Z,3.90
2018-12-01T02:05:27.725Z,4.10
2018-12-01T02:07:57.119Z,4.40
2018-12-01T02:10:26.559Z,4.30
2018-12-01T02:12:55.989Z,4.40
2018-12-01T02:15:25.393Z,4.50
2018-12-01T02:17:54.750Z,4.40
2018-12-01T02:20:24.178Z,4.30
2018-12-01T02:23:08.426Z,4.30
2018-12-01T02:25:52.718Z,4.30
2018-12-01T02:28:22.089Z,4.30
2018-12-01T02:30:51.485Z,4.30
2018-12-01T02:33:20.855Z,4.40
2018-12-01T02:35:50.260Z,4.50
2018-12-01T02:38:19.652Z,4.50
2018-12-01T02:40:49.167Z,4.60
2018-12-01T02:43:18.553Z,4.60
2018-12-01T02:45:59.012Z,4.70
2018-12-01T02:48:28.439Z,4.60
2018-12-01T02:50:57.880Z,4.50
2018-12-01T02:53:27.254Z,4.40
2018-12-01T02:55:56.695Z,4.30
2018-12-01T02:58:26.069Z,4.30
2018-12-01T03:00:55.496Z,4.30
2018-12-01T03:03:24.940Z,4.20
2018-12-01T03:05:54.385Z,4.30
2018-12-01T03:08:23.765Z,4.30
2018-12-01T03:10:53.161Z,4.40
2018-12-01T03:13:22.615Z,4.40
2018-12-01T03:15:52.011Z,4.50
2018-12-01T03:18:21.456Z,4.50
2018-12-01T03:20:50.858Z,4.60
2018-12-01T03:23:20.279Z,4.60
2018-12-01T03:25:49.682Z,4.60
2018-12-01T03:28:19.090Z,4.70
2018-12-01T03:30:48.670Z,4.80
2018-12-01T03:33:18.044Z,4.80
2018-12-01T03:35:47.417Z,4.80
2018-12-01T03:38:16.804Z,4.70
2018-12-01T03:40:48.167Z,4.80
2018-12-01T03:43:17.563Z,4.70
2018-12-01T03:45:46.936Z,4.80
2018-12-01T03:48:16.342Z,4.80
2018-12-01T03:50:45.721Z,4.80
2018-12-01T03:53:15.084Z,4.70
2018-12-01T03:55:44.469Z,4.60
2018-12-01T03:58:13.827Z,4.70
2018-12-01T04:00:43.173Z,4.80
2018-12-01T04:03:12.571Z,4.90
2018-12-01T04:05:41.925Z,4.90
2018-12-01T04:08:11.366Z,5.00
2018-12-01T04:10:40.768Z,5.00
2018-12-01T04:13:10.156Z,5.10
2018-12-01T04:15:39.467Z,5.00
2018-12-01T04:18:08.865Z,5.10
2018-12-01T04:20:38.246Z,5.10
2018-12-01T04:23:07.619Z,5.10
2018-12-01T04:25:36.989Z,5.10
2018-12-01T04:28:06.350Z,5.00
2018-12-01T04:30:35.699Z,5.10
2018-12-01T04:33:05.492Z,5.00
2018-12-01T04:35:34.918Z,5.00
2018-12-01T04:38:04.270Z,5.00
2018-12-01T04:40:33.643Z,5.00
2018-12-01T04:43:02.994Z,5.00
2018-12-01T04:45:32.424Z,5.00
2018-12-01T04:48:01.798Z,5.00
2018-12-01T04:50:31.201Z,5.00
2018-12-01T04:53:00.597Z,5.00
2018-12-01T04:55:29.978Z,5.00
2018-12-01T04:57:59.496Z,4.90
2018-12-01T05:00:28.886Z,4.90
2018-12-01T05:02:58.240Z,4.90
2018-12-01T05:05:27.619Z,4.90
2018-12-01T05:07:57.003Z,4.90
2018-12-01T05:10:26.424Z,4.80
2018-12-01T05:12:55.820Z,4.80
2018-12-01T05:15:25.259Z,4.80
2018-12-01T05:17:54.598Z,4.70
2018-12-01T05:20:24.467Z,4.90
2018-12-01T05:22:54.190Z,4.80
2018-12-01T05:25:23.677Z,4.80
2018-12-01T05:27:53.033Z,4.80
2018-12-01T05:30:22.419Z,4.90
2018-12-01T05:32:52.394Z,4.90
2018-12-01T05:35:22.956Z,4.80
2018-12-01T05:37:52.302Z,4.90
2018-12-01T05:40:22.050Z,4.80
2018-12-01T05:42:51.451Z,4.90
2018-12-01T05:45:22.539Z,4.80
2018-12-01T05:47:52.477Z,4.80
2018-12-01T05:50:24.378Z,4.70
2018-12-01T05:52:54.627Z,4.80
2018-12-01T05:55:24.045Z,4.70
2018-12-01T05:57:53.446Z,4.80
2018-12-01T06:00:22.919Z,4.70
2018-12-01T06:02:52.302Z,4.80
2018-12-01T06:05:21.656Z,4.80
2018-12-01T06:07:51.050Z,4.80
2018-12-01T06:10:21.897Z,4.70
2018-12-01T06:12:52.322Z,4.70
2018-12-01T06:15:22.051Z,4.60
2018-12-01T06:17:51.446Z,4.70
2018-12-01T06:20:22.749Z,4.60
2018-12-01T06:22:52.127Z,4.60
2018-12-01T06:25:23.532Z,4.60
2018-12-01T06:27:52.906Z,4.60
2018-12-01T06:30:22.292Z,4.50
2018-12-01T06:32:52.477Z,4.40
2018-12-01T06:35:21.777Z,4.50
2018-12-01T06:37:51.198Z,4.50
2018-12-01T06:40:21.176Z,4.40
2018-12-01T06:42:50.622Z,4.50
2018-12-01T06:45:19.997Z,4.60
2018-12-01T06:47:49.517Z,4.60
2018-12-01T06:50:21.357Z,4.60
2018-12-01T06:52:51.613Z,4.70
2018-12-01T06:55:21.429Z,4.70
2018-12-01T06:57:50.945Z,4.80
2018-12-01T07:00:22.361Z,4.80
2018-12-01T07:02:52.199Z,4.80
2018-12-01T07:05:21.546Z,4.80
2018-12-01T07:07:50.906Z,4.80
2018-12-01T07:10:21.193Z,4.80
2018-12-01T07:12:54.682Z,4.70
2018-12-01T07:15:26.525Z,4.70
2018-12-01T07:17:55.904Z,4.70
2018-12-01T07:20:25.269Z,4.70
2018-12-01T07:22:54.625Z,4.70
2018-12-01T07:25:24.046Z,4.70
2018-12-01T07:27:53.371Z,4.80
2018-12-01T07:30:22.729Z,4.80
2018-12-01T07:32:52.085Z,4.90
2018-12-01T07:35:21.471Z,4.90
2018-12-01T07:37:50.832Z,4.90
2018-12-01T07:40:20.194Z,4.90
2018-12-01T07:42:49.542Z,4.90
2018-12-01T07:45:18.899Z,5.00
2018-12-01T07:47:48.322Z,5.00
2018-12-01T07:50:18.506Z,5.00
2018-12-01T07:52:51.419Z,5.00
2018-12-01T07:55:20.806Z,5.00
2018-12-01T07:57:51.406Z,5.10
2018-12-01T08:00:20.770Z,5.10
2018-12-01T08:02:50.879Z,5.10
2018-12-01T08:05:20.272Z,5.10
2018-12-01T08:07:49.634Z,5.10
2018-12-01T08:10:19.034Z,5.20
2018-12-01T08:12:48.412Z,5.30
2018-12-01T08:15:18.430Z,5.40
2018-12-01T08:17:48.086Z,5.40
2018-12-01T08:20:17.882Z,5.40
2018-12-01T08:22:47.228Z,5.50
2018-12-01T08:25:18.656Z,5.40
2018-12-01T08:27:51.407Z,5.50
2018-12-01T08:30:35.199Z,5.60
2018-12-01T08:33:04.537Z,5.70
2018-12-01T08:35:33.917Z,5.70
2018-12-01T08:38:03.293Z,5.80
2018-12-01T08:40:33.312Z,6.00
2018-12-01T08:43:02.634Z,6.20
2018-12-01T08:45:32.058Z,7.70
2018-12-01T08:48:01.398Z,9.10
2018-12-01T08:50:30.828Z,10.00
2018-12-01T08:53:00.177Z,11.10
2018-12-01T08:55:29.597Z,12.10
2018-12-01T08:57:58.954Z,12.00
2018-12-01T09:00:35.881Z,12.10
2018-12-01T09:03:13.483Z,10.40
2018-12-01T09:05:42.926Z,10.00
2018-12-01T09:08:12.301Z,9.30
2018-12-01T09:10:41.768Z,8.40
2018-12-01T09:13:11.102Z,8.40
2018-12-01T09:15:40.516Z,8.70
2018-12-01T09:18:09.872Z,8.10
2018-12-01T09:20:39.245Z,8.50
2018-12-01T09:23:08.618Z,8.70
2018-12-01T09:25:38.059Z,8.90
2018-12-01T09:28:08.503Z,9.70
2018-12-01T09:30:39.694Z,9.50
2018-12-01T09:33:09.038Z,8.60
2018-12-01T09:35:38.425Z,10.50
2018-12-01T09:38:07.851Z,11.80
2018-12-01T09:40:37.244Z,11.90
2018-12-01T09:43:06.895Z,12.20
2018-12-01T09:45:36.310Z,12.20
2018-12-01T09:48:05.806Z,12.00
2018-12-01T09:50:35.159Z,11.10
2018-12-01T09:53:04.607Z,10.00
2018-12-01T09:55:34.006Z,9.80
2018-12-01T09:58:03.403Z,9.00
2018-12-01T10:00:33.220Z,8.70
2018-12-01T10:03:05.100Z,8.70
2018-12-01T10:05:34.641Z,9.00
2018-12-01T10:08:04.027Z,9.00
2018-12-01T10:10:33.406Z,8.60
2018-12-01T10:13:02.759Z,8.40
2018-12-01T10:15:34.501Z,8.10
2018-12-01T10:18:03.994Z,7.80
2018-12-01T10:20:34.266Z,7.60
2018-12-01T10:23:06.124Z,7.50
2018-12-01T10:25:35.485Z,8.40
2018-12-01T10:28:04.895Z,9.50
2018-12-01T10:30:34.335Z,10.80
2018-12-01T10:33:03.745Z,12.00
2018-12-01T10:35:33.123Z,12.10
2018-12-01T10:38:05.990Z,12.20
2018-12-01T10:40:35.358Z,11.50
2018-12-01T10:43:04.781Z,11.60
2018-12-01T10:45:34.169Z,12.60
2018-12-01T10:48:03.589Z,12.80
2018-12-01T10:50:32.926Z,12.80
2018-12-01T10:53:02.316Z,13.60
2018-12-01T10:55:32.587Z,14.10
2018-12-01T10:58:06.179Z,14.40
2018-12-01T11:00:40.830Z,14.60
2018-12-01T11:03:15.372Z,13.80
2018-12-01T11:05:44.883Z,12.90
2018-12-01T11:08:15.178Z,12.80
2018-12-01T11:10:45.004Z,13.00
2018-12-01T11:13:14.516Z,14.10
2018-12-01T11:15:43.906Z,15.70
2018-12-01T11:18:13.283Z,15.70
2018-12-01T11:20:42.646Z,15.30
2018-12-01T11:23:12.026Z,14.70
2018-12-01T11:25:41.389Z,15.10
2018-12-01T11:28:10.808Z,15.40
2018-12-01T11:30:42.534Z,16.20
2018-12-01T11:33:11.931Z,16.80
2018-12-01T11:35:40.785Z,17.30
2018-12-01T11:38:10.428Z,16.10
2018-12-01T11:40:39.778Z,15.50
2018-12-01T11:43:09.803Z,16.20
2018-12-01T11:45:39.258Z,16.10
2018-12-01T11:48:09.149Z,16.80
2018-12-01T11:50:39.389Z,16.60
2018-12-01T11:53:08.754Z,15.40
2018-12-01T11:55:38.142Z,16.60
2018-12-01T11:58:07.486Z,15.20
2018-12-01T12:00:37.260Z,16.00
2018-12-01T12:03:06.595Z,16.10
2018-12-01T12:05:35.993Z,16.60
2018-12-01T12:08:17.099Z,16.10
2018-12-01T12:10:46.482Z,16.40
2018-12-01T12:13:15.938Z,17.00
2018-12-01T12:15:45.358Z,16.60
2018-12-01T12:18:15.011Z,15.50
2018-12-01T12:20:44.422Z,16.60
2018-12-01T12:23:13.781Z,16.70
2018-12-01T12:25:43.166Z,16.00
2018-12-01T12:28:12.514Z,15.40
2018-12-01T12:30:41.921Z,15.00
2018-12-01T12:33:11.242Z,15.00
2018-12-01T12:35:40.603Z,14.30
2018-12-01T12:38:09.927Z,13.40
2018-12-01T12:40:39.349Z,12.50
2018-12-01T12:43:08.775Z,12.10
2018-12-01T12:45:38.177Z,11.40
2018-12-01T12:48:08.117Z,10.70
2018-12-01T12:50:37.498Z,10.80
2018-12-01T12:53:06.823Z,10.40
2018-12-01T12:55:36.200Z,10.60
2018-12-01T12:58:06.440Z,10.60
2018-12-01T13:00:36.628Z,10.70
2018-12-01T13:03:07.581Z,10.80
2018-12-01T13:05:44.882Z,10.80
2018-12-01T13:08:15.579Z,10.80
2018-12-01T13:10:44.961Z,10.60
2018-12-01T13:13:14.326Z,10.70
2018-12-01T13:15:43.677Z,10.40
2018-12-01T13:18:14.017Z,10.50
2018-12-01T13:20:44.578Z,10.30
2018-12-01T13:23:13.925Z,10.20
2018-12-01T13:25:43.594Z,10.00
2018-12-01T13:28:16.449Z,9.60
2018-12-01T13:30:53.226Z,9.30
2018-12-01T13:33:22.679Z,9.50
2018-12-01T13:35:52.057Z,9.50
2018-12-01T13:38:21.366Z,9.40
2018-12-01T13:40:50.757Z,9.30
2018-12-01T13:43:20.108Z,9.00
2018-12-01T13:45:49.477Z,9.00
2018-12-01T13:48:18.929Z,8.90
2018-12-01T13:50:48.315Z,8.80
2018-12-01T13:53:17.691Z,8.90
2018-12-01T13:55:47.046Z,8.70
2018-12-01T13:58:16.373Z,8.80
2018-12-01T14:00:45.811Z,8.60
2018-12-01T14:03:15.256Z,8.50
2018-12-01T14:05:44.585Z,8.50
2018-12-01T14:08:13.999Z,8.50
2018-12-01T14:10:47.122Z,8.40
2018-12-01T14:13:16.495Z,8.40
2018-12-01T14:15:45.838Z,8.30
2018-12-01T14:18:15.452Z,8.20
2018-12-01T14:20:44.804Z,8.10
2018-12-01T14:23:14.171Z,8.00
2018-12-01T14:25:43.527Z,7.90
2018-12-01T14:28:13.189Z,8.00
2018-12-01T14:30:42.552Z,8.10
2018-12-01T14:33:12.747Z,8.00
2018-12-01T14:35:42.105Z,7.80
2018-12-01T14:38:16.270Z,7.60
2018-12-01T14:40:46.886Z,7.60
2018-12-01T14:43:16.277Z,7.50
2018-12-01T14:45:46.850Z,7.50
2018-12-01T14:48:16.253Z,7.70
2018-12-01T14:50:48.544Z,7.70
2018-12-01T14:53:16.363Z,7.60
2018-12-01T14:55:45.744Z,7.60
2018-12-01T14:58:15.161Z,7.60
2018-12-01T15:00:44.522Z,7.50
2018-12-01T15:03:13.936Z,7.50
2018-12-01T15:05:43.324Z,7.30
2018-12-01T15:08:12.733Z,7.40
2018-12-01T15:10:42.115Z,7.30
2018-12-01T15:13:11.522Z,7.20
2018-12-01T15:15:40.888Z,7.00
2018-12-01T15:18:10.284Z,7.00
2018-12-01T15:20:39.645Z,7.10
2018-12-01T15:23:09.043Z,7.10
2018-12-01T15:25:38.415Z,6.90
2018-12-01T15:28:07.826Z,6.90
2018-12-01T15:30:37.205Z,6.90
2018-12-01T15:33:09.789Z,6.70
2018-12-01T15:35:39.647Z,6.60
2018-12-01T15:38:09.954Z,6.50
2018-12-01T15:40:43.730Z,6.60
2018-12-01T15:43:13.179Z,6.50
2018-12-01T15:45:42.666Z,6.30
2018-12-01T15:48:12.128Z,6.30
2018-12-01T15:50:41.690Z,6.30
2018-12-01T15:53:12.277Z,6.30
2018-12-01T15:55:43.186Z,6.20
2018-12-01T15:58:11.689Z,6.30
2018-12-01T16:00:41.952Z,6.30
2018-12-01T16:03:11.339Z,6.20
2018-12-01T16:05:40.686Z,6.20
2018-12-01T16:08:11.010Z,6.20
2018-12-01T16:10:40.505Z,6.20
2018-12-01T16:13:18.393Z,6.30
2018-12-01T16:15:51.832Z,6.20
2018-12-01T16:18:21.226Z,6.20
2018-12-01T16:20:50.608Z,6.20
2018-12-01T16:23:20.013Z,6.20
2018-12-01T16:25:49.399Z,6.20
2018-12-01T16:28:18.820Z,6.20
2018-12-01T16:30:48.261Z,6.20
2018-12-01T16:33:18.942Z,6.10
2018-12-01T16:35:48.663Z,6.20
2018-12-01T16:38:30.659Z,6.20
2018-12-01T16:41:10.278Z,6.20
2018-12-01T16:43:40.408Z,6.30
2018-12-01T16:46:09.796Z,6.20
2018-12-01T16:48:41.563Z,6.10
2018-12-01T16:51:11.172Z,6.10
2018-12-01T16:53:40.590Z,6.10
2018-12-01T16:56:11.909Z,6.10
2018-12-01T16:58:41.744Z,6.10
2018-12-01T17:01:12.362Z,6.20
2018-12-01T17:03:42.022Z,6.00
2018-12-01T17:06:14.039Z,6.10
2018-12-01T17:08:44.009Z,6.10
2018-12-01T17:11:13.385Z,6.10
2018-12-01T17:13:42.774Z,6.10
2018-12-01T17:16:12.171Z,6.10
2018-12-01T17:18:41.557Z,6.20
2018-12-01T17:21:10.961Z,6.10
2018-12-01T17:23:40.412Z,6.20
2018-12-01T17:26:09.849Z,6.20
2018-12-01T17:28:39.227Z,6.30
2018-12-01T17:31:08.608Z,6.20
2018-12-01T17:33:37.996Z,6.10
2018-12-01T17:36:07.386Z,6.20
2018-12-01T17:38:36.949Z,6.10
2018-12-01T17:41:15.306Z,6.10
2018-12-01T17:44:16.367Z,6.10
2018-12-01T17:46:45.793Z,6.10
2018-12-01T17:49:15.149Z,6.10
2018-12-01T17:51:44.548Z,6.00
2018-12-01T17:54:15.819Z,5.90
2018-12-01T17:56:45.450Z,6.00
2018-12-01T17:59:14.837Z,6.00
2018-12-01T18:01:44.252Z,6.00
2018-12-01T18:04:13.587Z,6.00
2018-12-01T18:06:43.026Z,6.00
2018-12-01T18:09:12.403Z,6.00
2018-12-01T18:11:41.831Z,6.00
2018-12-01T18:14:11.828Z,6.00
2018-12-01T18:16:41.279Z,6.00
2018-12-01T18:19:11.130Z,6.00
2018-12-01T18:21:40.126Z,6.00
2018-12-01T18:24:09.521Z,6.00
2018-12-01T18:26:38.911Z,6.00
2018-12-01T18:29:08.270Z,5.90
2018-12-01T18:31:37.673Z,5.90
2018-12-01T18:34:10.530Z,5.90
2018-12-01T18:36:39.951Z,5.90
2018-12-01T18:39:11.714Z,5.90
2018-12-01T18:41:41.115Z,5.80
2018-12-01T18:44:10.471Z,5.80
2018-12-01T18:46:39.871Z,5.80
2018-12-01T18:49:09.215Z,5.80
2018-12-01T18:51:38.602Z,5.80
2018-12-01T18:54:08.182Z,5.80
2018-12-01T18:56:37.570Z,5.80
2018-12-01T18:59:06.979Z,5.80
2018-12-01T19:01:36.360Z,5.80
2018-12-01T19:04:05.827Z,5.60
2018-12-01T19:06:35.202Z,5.60
2018-12-01T19:09:05.651Z,5.60
2018-12-01T19:11:35.035Z,5.60
2018-12-01T19:14:04.378Z,5.60
2018-12-01T19:16:33.810Z,5.60
2018-12-01T19:19:03.165Z,5.70
2018-12-01T19:21:32.529Z,5.60
2018-12-01T19:24:01.890Z,5.60
2018-12-01T19:26:31.254Z,5.60
2018-12-01T19:29:00.621Z,5.60
2018-12-01T19:31:30.001Z,5.60
2018-12-01T19:33:59.402Z,5.60
2018-12-01T19:36:28.747Z,5.60
2018-12-01T19:38:58.110Z,5.50
2018-12-01T19:41:27.469Z,5.50
2018-12-01T19:43:56.823Z,5.50
2018-12-01T19:46:26.198Z,5.50
2018-12-01T19:48:55.594Z,5.60
2018-12-01T19:51:24.950Z,5.50
2018-12-01T19:53:54.306Z,5.50
2018-12-01T19:56:23.662Z,5.40
2018-12-01T19:58:53.054Z,5.40
2018-12-01T20:01:22.387Z,5.40
2018-12-01T20:03:51.804Z,5.40
2018-12-01T20:06:21.149Z,5.40
2018-12-01T20:08:50.549Z,5.40
2018-12-01T20:11:19.902Z,5.50
2018-12-01T20:13:49.382Z,5.40
2018-12-01T20:16:27.037Z,5.40
2018-12-01T20:18:56.436Z,5.40
2018-12-01T20:21:25.795Z,5.40
2018-12-01T20:23:55.233Z,5.40
2018-12-01T20:26:24.569Z,5.40
2018-12-01T20:28:53.929Z,5.40
2018-12-01T20:31:23.282Z,5.40
2018-12-01T20:33:54.037Z,5.40
2018-12-01T20:36:37.411Z,5.40
2018-12-01T20:39:12.273Z,5.40
2018-12-01T20:41:41.614Z,5.40
2018-12-01T20:44:11.003Z,5.30
2018-12-01T20:46:40.398Z,5.20
2018-12-01T20:49:09.769Z,5.20
2018-12-01T20:51:39.145Z,5.20
2018-12-01T20:54:19.098Z,5.30
2018-12-01T20:56:48.451Z,5.20
2018-12-01T20:59:17.861Z,5.10
2018-12-01T21:01:47.241Z,5.10
2018-12-01T21:04:16.618Z,5.10
2018-12-01T21:06:45.982Z,5.10
2018-12-01T21:09:15.410Z,5.00
2018-12-01T21:11:44.838Z,5.00
2018-12-01T21:14:14.315Z,5.00
2018-12-01T21:16:43.850Z,4.90
2018-12-01T21:19:13.231Z,4.90
2018-12-01T21:21:42.654Z,4.90
2018-12-01T21:24:12.024Z,4.90
2018-12-01T21:26:41.458Z,4.90
2018-12-01T21:29:10.808Z,4.90
2018-12-01T21:31:40.225Z,4.80
2018-12-01T21:34:09.573Z,4.80
2018-12-01T21:36:39.101Z,4.80
2018-12-01T21:39:09.347Z,4.70
2018-12-01T21:41:38.716Z,4.70
2018-12-01T21:44:08.095Z,4.70
2018-12-01T21:46:37.542Z,4.70
2018-12-01T21:49:06.962Z,4.60
2018-12-01T21:51:36.359Z,4.60
2018-12-01T21:54:06.174Z,4.60
2018-12-01T21:56:35.586Z,4.60
2018-12-01T21:59:05.075Z,4.70
2018-12-01T22:01:34.550Z,4.70
2018-12-01T22:04:03.947Z,4.80
2018-12-01T22:06:33.352Z,4.80
2018-12-01T22:09:02.827Z,4.70
2018-12-01T22:11:32.221Z,4.80
2018-12-01T22:14:01.599Z,4.80
2018-12-01T22:16:31.126Z,4.80
2018-12-01T22:19:00.463Z,4.70
2018-12-01T22:21:29.851Z,4.70
2018-12-01T22:23:59.239Z,4.80
2018-12-01T22:26:28.607Z,4.70
2018-12-01T22:28:57.946Z,4.70
2018-12-01T22:31:27.366Z,4.70
2018-12-01T22:33:56.766Z,4.60
2018-12-01T22:36:26.166Z,4.60
2018-12-01T22:38:55.870Z,4.60
2018-12-01T22:41:25.286Z,4.60
2018-12-01T22:43:54.647Z,4.50
2018-12-01T22:46:24.045Z,4.50
2018-12-01T22:48:53.382Z,4.50
2018-12-01T22:51:22.754Z,4.60
2018-12-01T22:53:52.098Z,4.50
2018-12-01T22:56:21.503Z,4.50
2018-12-01T22:58:50.874Z,4.50
2018-12-01T23:01:20.204Z,4.50
2018-12-01T23:03:49.605Z,4.40
2018-12-01T23:06:18.965Z,4.40
2018-12-01T23:08:48.429Z,4.40
2018-12-01T23:11:18.759Z,4.50
2018-12-01T23:13:49.067Z,4.60
2018-12-01T23:16:18.425Z,4.60
2018-12-01T23:18:47.798Z,4.60
2018-12-01T23:21:20.641Z,4.60
2018-12-01T23:23:46.562Z,4.60
2018-12-01T23:26:15.913Z,4.70
2018-12-01T23:28:45.266Z,4.70
2018-12-01T23:31:14.712Z,4.70
2018-12-01T23:33:44.130Z,4.70
2018-12-01T23:36:13.459Z,4.70
2018-12-01T23:38:42.805Z,4.70
2018-12-01T23:41:12.208Z,4.70
2018-12-01T23:43:41.592Z,4.80
2018-12-01T23:46:10.987Z,4.80
2018-12-01T23:48:40.358Z,4.80
2018-12-01T23:51:09.739Z,4.80
2018-12-01T23:53:39.117Z,4.80
2018-12-01T23:56:08.498Z,4.80
2018-12-01T23:58:37.910Z,4.70
